Time;durP1;ratioP1;P1;durP2;ratioP2;P2;SDS_P1;SDS_P2;PMS_P1;PMS_P2;Temp;Humidity;BMP_temperature;BMP_pressure;BME280_temperature;BME280_humidity;BME280_pressure;Samples;Min_cycle;Max_cycle;Signal;HPM_P1;HPM_P2
2023/01/14 00:02:23;;;;;;;16.85;5.53;;;;;;;-2.22;64.09;100619.03;4734693;30;20054;-82
2023/01/14 00:19:07;;;;;;;17.30;6.05;;;;;;;-2.66;64.08;100551.16;4704042;30;20045;-81
2023/01/14 00:27:35;;;;;;;11.57;5.43;;;;;;;-1.54;64.39;100719.75;4683662;30;20124;-80
2023/01/14 00:34:33;;;;;;;;;;;;;;;;;;;;;
2023/01/14 00:43:27;;;;;;;;;;;;;;;;;;;;;
2023/01/14 00:47:21;;;;;;;11.98;5.00;;;;;;;-2.82;63.76;100514.63;4735187;30;20047;-82
2023/01/14 00:50:31;;;;;;;;;;;;;;;;;;;;;
2023/01/14 00:54:59;;;;;;;12.38;5.78;;;;;;;-1.57;64.43;100723.81;4743462;30;20115;-82
2023/01/14 00:58:43;;;;;;;12.52;5.38;;;;;;;-2.07;63.79;100621.56;4697875;30;20091;-81
2023/01/14 01:02:37;;;;;;;11.23;5.70;;;;;;;-2.80;64.61;100499.41;4651521;30;20070;-82
2023/01/14 01:31:54;;;;;;;14.95;6.38;;;;;;;-2.27;64.66;100575.44;4634022;30;20074;-81
2023/01/14 01:35:09;;;;;;;;;;;;;;;;;;;;;
2023/01/14 01:39:17;;;;;;;16.63;5.72;;;;;;;-1.57;64.17;100654.88;4565963;31;20525;-81
2023/01/14 01:43:30;;;;;;;12.63;6.82;;;;;;;-1.63;64.05;100669.84;4580122;31;20069;-81
2023/01/14 01:55:14;;;;;;;;;;;;;;;;;;;;;
2023/01/14 01:58:41;;;;;;;12.10;5.80;;;;;;;-1.67;64.66;100679.03;4630035;30;20055;-82
2023/01/14 02:02:55;;;;;;;;;;;;;;;;;;;;;
2023/01/14 02:07:11;;;;;;;;;;;;;;;;;;;;;
2023/01/14 02:16:00;;;;;;;11.20;6.00;;;;;;;-2.98;64.30;100494.16;4721523;30;20143;-81
2023/01/14 02:19:39;;;;;;;12.38;6.32;;;;;;;-2.42;64.58;100598.41;4699895;30;20049;-80
2023/01/14 02:22:50;;;;;;;12.82;6.28;;;;;;;-1.79;64.50;100676.69;4686856;30;20057;-79
2023/01/14 02:26:22;;;;;;;12.70;6.25;;;;;;;-1.82;64.24;100682.47;4688622;30;20049;-81
2023/01/14 02:29:59;;;;;;;15.05;6.50;;;;;;;-1.91;64.31;100686.19;4715668;30;20377;-81
2023/01/14 02:33:47;;;;;;;14.63;5.80;;;;;;;-1.88;64.75;100678.72;4731984;30;20083;-80
2023/01/14 02:37:27;;;;;;;14.55;5.40;;;;;;;-2.22;64.38;100670.03;4711166;30;20048;-82
2023/01/14 02:40:20;;;;;;;;;;;;;;;-1.94;64.43;100684.38;4720014;30;20060;-83
2023/01/14 02:46:25;;;;;;;15.27;5.32;;;;;;;-2.20;64.35;100658.25;4715967;30;20053;-79
2023/01/14 02:49:00;;;;;;;15.48;5.55;;;;;;;-2.54;64.32;100609.56;4718354;30;20052;-80
2023/01/14 02:51:47;;;;;;;14.40;6.03;;;;;;;-3.35;64.44;100488.69;4733038;30;20131;-82
2023/01/14 02:55:00;;;;;;;14.25;5.82;;;;;;;-2.43;64.39;100622.16;4737746;30;20052;-79
2023/01/14 02:58:09;;;;;;;16.67;6.15;;;;;;;-2.05;65.28;100667.56;4718775;30;20109;-80
2023/01/14 03:00:59;;;;;;;12.77;5.85;;;;;;;-1.79;65.04;100698.75;4707290;30;20381;-82
2023/01/14 03:03:48;;;;;;;13.32;5.90;;;;;;;-1.76;64.77;100694.69;4744866;30;20087;-80
2023/01/14 03:06:35;;;;;;;14.63;6.55;;;;;;;-1.68;64.69;100700.25;4739327;30;20056;-79
2023/01/14 03:10:00;;;;;;;13.85;5.20;;;;;;;-1.80;64.31;100704.66;4721719;30;20048;-81
2023/01/14 03:13:36;;;;;;;;;;;;;;;;;;;;;
2023/01/14 03:20:32;;;;;;;15.80;5.60;;;;;;;-2.60;64.62;100579.53;4681799;30;20521;-80
2023/01/14 03:23:05;;;;;;;12.20;5.70;;;;;;;-1.91;65.06;100698.94;4782048;29;20118;-80
2023/01/14 03:25:35;;;;;;;15.55;6.05;;;;;;;-1.83;65.03;100690.06;4772282;29;20059;-82
2023/01/14 03:28:11;;;;;;;14.35;5.97;;;;;;;-1.73;64.92;100691.44;4802062;29;20051;-82
2023/01/14 03:30:42;;;;;;;11.52;6.63;;;;;;;-1.90;64.41;100649.69;4787229;29;20058;-80
2023/01/14 03:33:14;;;;;;;9.95;5.30;;;;;;;-1.80;64.10;100672.38;4786621;29;20079;-80
2023/01/14 03:35:43;;;;;;;13.57;6.07;;;;;;;-2.02;64.52;100660.09;4801742;29;20047;-80
2023/01/14 03:38:20;;;;;;;15.18;5.22;;;;;;;-1.89;64.45;100679.50;4786795;29;20089;-81
2023/01/14 03:40:49;;;;;;;13.15;5.72;;;;;;;-2.06;64.82;100660.69;4817983;29;20042;-79
2023/01/14 03:43:29;;;;;;;14.35;6.40;;;;;;;-2.24;64.56;100646.13;4805183;29;20043;-79
2023/01/14 03:45:56;;;;;;;19.83;6.03;;;;;;;-2.25;64.99;100644.38;4790092;29;20043;-81
2023/01/14 03:48:23;;;;;;;13.50;5.85;;;;;;;-1.98;64.69;100670.53;4787801;29;20438;-79
2023/01/14 03:51:01;;;;;;;10.25;5.50;;;;;;;-1.89;64.23;100690.59;4772180;30;20043;-79
2023/01/14 03:53:48;;;;;;;12.20;5.78;;;;;;;-1.89;64.66;100680.41;4755438;30;20088;-80
2023/01/14 03:56:58;;;;;;;11.55;5.72;;;;;;;-1.90;64.63;100678.63;4770453;30;20479;-82
2023/01/14 03:59:50;;;;;;;15.05;6.03;;;;;;;-2.07;64.84;100638.53;4769826;30;20122;-80
2023/01/14 04:02:18;;;;;;;10.63;5.28;;;;;;;-1.84;64.46;100670.44;4770911;30;20055;-80
2023/01/14 04:04:46;;;;;;;10.05;5.43;;;;;;;-2.20;64.58;100632.75;4770544;30;20047;-80
2023/01/14 04:07:12;;;;;;;11.27;4.90;;;;;;;-1.85;64.96;100686.53;4770262;30;20147;-80
2023/01/14 04:09:39;;;;;;;12.90;5.50;;;;;;;-1.83;64.49;100680.72;4769773;30;20039;-80
2023/01/14 04:12:05;;;;;;;10.88;5.60;;;;;;;-2.13;64.35;100633.97;4785412;29;20400;-80
2023/01/14 04:17:16;;;;;;;11.13;4.72;;;;;;;-2.04;64.21;100676.97;4780482;30;20138;-81
2023/01/14 04:19:42;;;;;;;13.57;5.70;;;;;;;-2.06;64.32;100684.56;4769716;30;20047;-80
2023/01/14 04:22:08;;;;;;;15.00;5.88;;;;;;;-2.12;64.99;100674.88;4771172;30;20105;-80
2023/01/14 04:24:34;;;;;;;13.95;5.57;;;;;;;-2.08;64.93;100672.47;4777984;30;20048;-82
2023/01/14 04:27:00;;;;;;;11.52;4.80;;;;;;;-2.02;64.27;100681.38;4769852;30;20047;-80
2023/01/14 04:29:26;;;;;;;15.85;5.85;;;;;;;-2.02;64.64;100683.03;4769609;30;20082;-82
2023/01/14 04:31:52;;;;;;;14.05;5.95;;;;;;;-2.22;64.52;100642.00;4754696;30;20046;-81
2023/01/14 04:34:18;;;;;;;12.48;4.85;;;;;;;-2.04;64.64;100667.66;4755539;30;20044;-81
2023/01/14 04:36:44;;;;;;;12.00;4.97;;;;;;;-1.86;65.11;100695.84;4762022;29;20053;-80
2023/01/14 04:39:10;;;;;;;14.07;5.40;;;;;;;-1.86;64.41;100698.41;4788274;30;20044;-81
2023/01/14 04:44:21;;;;;;;14.18;6.45;;;;;;;-1.87;64.97;100708.53;4770782;29;20093;-82
2023/01/14 04:46:47;;;;;;;11.07;5.63;;;;;;;-1.88;64.78;100702.56;4772485;30;20139;-81
2023/01/14 04:49:13;;;;;;;12.68;5.65;;;;;;;-1.83;65.08;100698.59;4759573;30;20160;-81
2023/01/14 04:51:39;;;;;;;13.13;5.53;;;;;;;-2.01;65.13;100674.59;4770264;30;20101;-81
2023/01/14 04:54:05;;;;;;;11.75;4.68;;;;;;;-2.13;64.62;100680.78;4770051;30;20553;-82
2023/01/14 04:56:31;;;;;;;12.93;5.75;;;;;;;-2.33;65.10;100640.53;4755017;30;20179;-81
2023/01/14 04:59:02;;;;;;;15.40;6.10;;;;;;;-1.91;64.96;100724.47;4769107;30;20096;-80
2023/01/14 05:01:31;;;;;;;11.95;5.68;;;;;;;-2.13;64.82;100695.19;4768967;30;20679;-81
2023/01/14 05:04:00;;;;;;;12.85;5.15;;;;;;;-2.07;64.88;100710.84;4754328;29;20054;-81
2023/01/14 05:06:28;;;;;;;19.02;5.95;;;;;;;-2.00;64.98;100712.97;4769738;30;20156;-81
2023/01/14 05:08:55;;;;;;;14.60;5.47;;;;;;;-2.06;64.99;100716.81;4770813;30;20039;-81
2023/01/14 05:11:21;;;;;;;18.05;5.97;;;;;;;-2.05;65.17;100705.81;4754594;30;20066;-82
2023/01/14 05:13:47;;;;;;;11.98;5.50;;;;;;;-2.14;65.19;100689.22;4769265;30;20066;-81
2023/01/14 05:16:16;;;;;;;17.33;5.88;;;;;;;-2.02;65.07;100712.00;4787249;29;20075;-80
2023/01/14 05:18:43;;;;;;;13.98;6.03;;;;;;;-2.36;64.45;100671.81;4770294;30;20051;-81
2023/01/14 05:21:12;;;;;;;16.10;5.40;;;;;;;-2.21;65.08;100686.25;4769035;30;20047;-81
2023/01/14 05:23:38;;;;;;;14.07;5.38;;;;;;;-2.02;65.16;100718.75;4769780;30;20100;-81
2023/01/14 05:26:05;;;;;;;13.45;5.93;;;;;;;-2.30;65.60;100668.72;4769526;29;20047;-82
2023/01/14 05:28:32;;;;;;;14.93;5.70;;;;;;;-2.00;64.77;100710.41;4754219;30;20098;-80
2023/01/14 05:30:58;;;;;;;16.23;6.03;;;;;;;-2.38;65.45;100650.44;4770355;30;20075;-80
2023/01/14 05:33:27;;;;;;;16.52;6.03;;;;;;;-2.39;65.44;100652.91;4768895;30;20121;-81
2023/01/14 05:35:57;;;;;;;14.40;6.13;;;;;;;-2.25;65.34;100658.81;4768969;30;20051;-82
2023/01/14 05:38:27;;;;;;;11.77;5.85;;;;;;;-2.16;65.17;100672.94;4772246;30;20055;-81
2023/01/14 05:40:54;;;;;;;17.13;5.47;;;;;;;-2.01;65.38;100702.66;4770329;30;20051;-81
2023/01/14 05:46:10;;;;;;;17.38;6.03;;;;;;;-3.55;65.00;100473.94;4769813;29;20411;-82
2023/01/14 05:48:36;;;;;;;;;;;;;;;-2.08;65.23;100713.28;4755407;30;20047;-81
2023/01/14 05:51:20;;;;;;;13.50;5.88;;;;;;;-2.06;65.32;100727.03;4776895;30;20033;-80
2023/01/14 05:53:50;;;;;;;14.60;5.15;;;;;;;-2.79;64.81;100605.63;4773930;29;20112;-82
2023/01/14 05:56:22;;;;;;;17.27;6.13;;;;;;;-2.80;65.15;100580.94;4770794;30;20086;-81
2023/01/14 05:58:48;;;;;;;11.93;5.82;;;;;;;-2.58;64.90;100624.69;4759276;30;20057;-80
2023/01/14 06:07:06;;;;;;;15.65;5.68;;;;;;;-3.44;64.97;100516.16;4784754;30;20100;-80
2023/01/14 06:09:37;;;;;;;13.38;5.78;;;;;;;-2.42;65.34;100687.63;4784644;30;20511;-79
2023/01/14 06:20:24;;;;;;;;;;;;;;;;;;;;;
2023/01/14 06:23:25;;;;;;;13.15;6.32;;;;;;;-2.01;65.90;100746.03;4770992;29;20057;-79
2023/01/14 06:33:06;;;;;;;16.77;5.70;;;;;;;-2.73;65.72;100593.25;4777478;29;20059;-80
2023/01/14 06:35:42;;;;;;;12.65;5.53;;;;;;;-1.89;65.31;100748.41;4775105;30;20060;-77
2023/01/14 06:38:11;;;;;;;12.55;5.53;;;;;;;-2.54;65.21;100622.31;4757030;30;20134;-78
2023/01/14 06:40:44;;;;;;;12.05;5.13;;;;;;;-1.95;65.27;100741.28;4773003;29;20139;-79
2023/01/14 06:43:12;;;;;;;13.65;5.40;;;;;;;-2.12;65.27;100717.34;4770380;29;20052;-78
2023/01/14 06:45:39;;;;;;;13.80;5.72;;;;;;;-2.38;66.12;100662.31;4754185;29;20044;-78
2023/01/14 06:48:08;;;;;;;15.07;6.38;;;;;;;-1.91;65.22;100750.88;4783621;29;20055;-81
2023/01/14 06:51:05;;;;;;;17.48;6.35;;;;;;;-1.83;65.61;100752.16;4756720;30;20077;-81
2023/01/14 06:53:34;;;;;;;15.40;5.75;;;;;;;-2.58;65.43;100613.63;4770526;30;20144;-81
2023/01/14 06:56:30;;;;;;;15.45;5.47;;;;;;;-1.68;65.59;100746.19;4769412;30;20055;-80
2023/01/14 06:59:12;;;;;;;13.43;6.03;;;;;;;-2.07;65.75;100709.94;4769242;29;20488;-80
2023/01/14 07:01:38;;;;;;;14.32;6.30;;;;;;;-2.34;65.89;100654.06;4769169;30;20054;-80
2023/01/14 07:04:07;;;;;;;17.20;5.93;;;;;;;-2.93;65.64;100542.03;4768988;30;20581;-76
2023/01/14 07:06:33;;;;;;;13.57;5.55;;;;;;;-2.13;64.83;100698.63;4775186;29;20043;-79
2023/01/14 07:09:03;;;;;;;19.65;6.82;;;;;;;-1.90;65.62;100716.91;4756614;30;20039;-80
2023/01/14 07:11:29;;;;;;;16.05;6.32;;;;;;;-1.84;65.34;100714.69;4771631;29;20061;-79
2023/01/14 07:13:55;;;;;;;19.48;6.88;;;;;;;-2.17;65.59;100655.88;4771547;30;20044;-79
2023/01/14 07:16:21;;;;;;;15.07;6.60;;;;;;;-1.57;65.43;100749.34;4772458;30;20493;-80
2023/01/14 07:18:47;;;;;;;15.18;6.13;;;;;;;-1.48;65.20;100748.97;4772539;30;20249;-77
2023/01/14 07:21:13;;;;;;;17.52;7.43;;;;;;;-1.61;65.45;100727.84;4770826;30;20044;-76
2023/01/14 07:23:46;;;;;;;16.95;6.15;;;;;;;-1.53;65.64;100752.13;4786636;29;20095;-78
2023/01/14 07:26:12;;;;;;;14.48;5.75;;;;;;;-1.58;65.07;100758.66;4772365;30;20043;-79
2023/01/14 07:28:38;;;;;;;13.75;5.80;;;;;;;-1.92;65.21;100704.84;4771684;30;20052;-77
2023/01/14 07:31:08;;;;;;;13.88;6.55;;;;;;;-1.95;65.57;100695.34;4757048;30;20071;-79
2023/01/14 07:33:34;;;;;;;17.88;7.07;;;;;;;-1.56;65.90;100771.53;4771217;29;20093;-79
2023/01/14 07:36:05;;;;;;;18.58;7.18;;;;;;;-1.69;66.15;100718.91;4772038;30;20107;-79
2023/01/14 07:38:32;;;;;;;16.53;6.77;;;;;;;-1.70;65.39;100701.84;4775329;30;20047;-77
2023/01/14 07:40:59;;;;;;;11.70;5.13;;;;;;;-1.56;64.84;100735.78;4772534;30;20050;-78
2023/01/14 07:43:28;;;;;;;12.55;6.15;;;;;;;-1.39;65.06;100758.00;4759119;30;20058;-79
2023/01/14 07:46:00;;;;;;;17.10;6.65;;;;;;;-1.90;65.17;100677.75;4773599;30;20059;-79
2023/01/14 07:48:34;;;;;;;19.02;7.60;;;;;;;-1.36;65.40;100767.50;4757699;30;20055;-78
2023/01/14 07:51:20;;;;;;;20.65;6.70;;;;;;;-1.43;65.36;100752.63;4771688;30;20532;-79
2023/01/14 07:53:47;;;;;;;18.90;8.15;;;;;;;-1.61;64.91;100727.84;4779865;29;20144;-80
2023/01/14 07:56:14;;;;;;;20.08;7.90;;;;;;;-1.27;65.33;100765.47;4757722;30;20616;-77
2023/01/14 07:58:40;;;;;;;16.15;6.65;;;;;;;-1.26;64.88;100766.31;4771305;30;20075;-78
2023/01/14 08:01:09;;;;;;;16.67;7.47;;;;;;;-1.41;65.04;100753.59;4772665;30;20051;-78
2023/01/14 08:03:36;;;;;;;16.42;6.65;;;;;;;-1.42;64.86;100749.28;4772673;30;20055;-79
2023/01/14 08:06:11;;;;;;;15.95;7.78;;;;;;;-1.45;64.60;100751.69;4770833;30;20518;-78
2023/01/14 08:09:28;;;;;;;17.83;8.18;;;;;;;-1.27;65.31;100790.09;4755845;30;20644;-79
2023/01/14 08:12:14;;;;;;;18.50;6.95;;;;;;;-2.40;65.36;100578.09;4773303;30;20093;-78
2023/01/14 08:15:24;;;;;;;15.57;7.38;;;;;;;-2.20;64.99;100591.97;4768681;29;20524;-79
2023/01/14 08:18:16;;;;;;;15.23;6.90;;;;;;;-2.43;65.01;100530.38;4774935;30;20052;-79
2023/01/14 08:21:13;;;;;;;16.90;6.80;;;;;;;-1.18;64.81;100779.50;4769017;29;20044;-78
2023/01/14 08:23:39;;;;;;;16.83;7.20;;;;;;;-1.70;64.50;100677.16;4771990;30;20143;-79
2023/01/14 08:26:13;;;;;;;16.23;7.88;;;;;;;-1.09;65.03;100764.69;4771640;30;20518;-78
2023/01/14 08:28:40;;;;;;;18.65;8.18;;;;;;;-1.19;64.95;100749.66;4785468;30;20044;-78
2023/01/14 08:31:23;;;;;;;16.67;6.68;;;;;;;-1.49;64.33;100697.00;4772733;30;20051;-81
2023/01/14 08:34:08;;;;;;;17.83;6.53;;;;;;;-1.33;65.17;100721.69;4742883;30;20746;-79
2023/01/14 08:37:04;;;;;;;16.73;7.43;;;;;;;-1.83;65.33;100622.03;4771064;29;20525;-81
2023/01/14 08:39:42;;;;;;;17.77;6.43;;;;;;;-1.85;64.96;100613.41;4755869;30;20079;-78
2023/01/14 08:42:09;;;;;;;18.48;6.68;;;;;;;-1.33;64.09;100687.63;4755552;29;20501;-76
2023/01/14 08:44:38;;;;;;;16.00;5.97;;;;;;;-1.03;63.91;100777.81;4770710;30;20058;-79
2023/01/14 08:47:04;;;;;;;17.08;6.90;;;;;;;-1.61;64.23;100664.03;4754705;30;20430;-78
2023/01/14 08:49:44;;;;;;;18.13;7.28;;;;;;;-1.42;65.13;100700.75;4770774;30;20051;-77
2023/01/14 08:52:21;;;;;;;18.33;6.60;;;;;;;-2.49;63.93;100542.75;4770681;30;20042;-79
2023/01/14 08:54:48;;;;;;;12.73;6.25;;;;;;;-1.61;64.21;100669.13;4756414;30;20039;-78
2023/01/14 08:57:15;;;;;;;14.60;6.45;;;;;;;-2.32;64.46;100558.16;4741410;30;20142;-79
2023/01/14 08:59:43;;;;;;;17.13;7.43;;;;;;;-1.52;64.87;100668.75;4770757;29;20044;-77
2023/01/14 09:02:21;;;;;;;19.42;7.00;;;;;;;-0.95;64.57;100761.19;4786268;29;20052;-80
2023/01/14 09:04:50;;;;;;;18.20;6.88;;;;;;;-1.14;64.19;100720.13;4771002;30;20046;-79
2023/01/14 09:19:30;;;;;;;16.90;5.78;;;;;;;-2.51;64.29;100513.75;4780270;30;20052;-81
2023/01/14 09:22:09;;;;;;;15.10;6.88;;;;;;;-1.06;64.37;100764.84;4777672;29;20498;-79
2023/01/14 09:24:49;;;;;;;14.73;6.07;;;;;;;-1.33;64.66;100714.03;4788927;30;20067;-79
2023/01/14 09:27:15;;;;;;;16.38;6.18;;;;;;;-1.96;63.90;100634.91;4776772;30;20063;-79
2023/01/14 09:29:41;;;;;;;18.95;6.82;;;;;;;-1.12;64.42;100754.31;4775649;29;20071;-79
2023/01/14 09:32:24;;;;;;;15.52;6.63;;;;;;;-2.43;64.08;100538.00;4785063;30;20531;-79
2023/01/14 09:34:53;;;;;;;15.85;6.32;;;;;;;-1.02;64.03;100779.56;4787757;30;20100;-79
2023/01/14 09:37:22;;;;;;;18.40;6.50;;;;;;;-1.82;64.17;100615.25;4784288;30;20352;-80
2023/01/14 09:39:51;;;;;;;13.27;6.15;;;;;;;-2.55;63.85;100486.38;4756845;29;20065;-80
2023/01/14 09:42:28;;;;;;;15.43;6.38;;;;;;;-1.39;64.53;100688.16;4776831;30;20143;-83
2023/01/14 09:45:15;;;;;;;13.98;6.75;;;;;;;-1.65;63.91;100617.84;4771679;30;20052;-81
2023/01/14 09:47:43;;;;;;;20.30;7.05;;;;;;;-1.91;63.76;100585.03;4756138;30;20043;-77
2023/01/14 09:50:31;;;;;;;17.63;7.35;;;;;;;-1.43;64.41;100666.69;4756322;30;20150;-80
2023/01/14 09:53:29;;;;;;;12.90;6.13;;;;;;;-0.86;63.93;100744.59;4774522;29;20026;-79
2023/01/14 09:56:23;;;;;;;14.10;6.60;;;;;;;-2.21;63.57;100553.63;4772389;30;20047;-80
2023/01/14 10:03:32;;;;;;;13.20;6.53;;;;;;;-1.73;64.32;100645.50;4772582;30;20056;-78
2023/01/14 10:06:19;;;;;;;18.70;6.88;;;;;;;-2.25;64.39;100550.00;4773343;29;20497;-81
2023/01/14 10:09:17;;;;;;;19.20;7.03;;;;;;;-1.26;64.24;100705.03;4774434;30;20046;-83
2023/01/14 10:11:50;;;;;;;16.70;6.93;;;;;;;-0.98;64.63;100755.03;4776103;30;20063;-79
2023/01/14 10:14:33;;;;;;;18.58;6.93;;;;;;;-1.46;64.30;100660.56;4794091;29;20124;-81
2023/01/14 10:17:36;;;;;;;17.45;6.90;;;;;;;-2.14;63.89;100550.59;4787251;29;20050;-80
2023/01/14 10:20:51;;;;;;;17.75;6.63;;;;;;;-1.91;64.16;100613.09;4753379;30;20096;-81
2023/01/14 10:23:41;;;;;;;16.88;5.97;;;;;;;-1.75;63.70;100634.34;4777568;30;20059;-81
2023/01/14 10:30:42;;;;;;;26.83;6.88;;;;;;;-2.18;65.27;100554.66;4771619;30;20115;-79
2023/01/14 10:33:24;;;;;;;16.17;6.53;;;;;;;-1.04;64.81;100731.72;4773939;30;20552;-80
2023/01/14 10:36:11;;;;;;;11.77;5.65;;;;;;;-2.01;65.01;100567.44;4774225;30;20073;-80
2023/01/14 10:39:03;;;;;;;14.32;6.05;;;;;;;-1.00;64.60;100729.41;4758518;30;20059;-79
2023/01/14 10:41:51;;;;;;;;;;;;;;;-1.00;64.94;100731.97;4775071;30;20058;-79
2023/01/14 10:44:33;;;;;;;15.13;5.78;;;;;;;-2.14;64.46;100568.47;4773975;30;21101;-78
2023/01/14 10:47:34;;;;;;;15.38;5.72;;;;;;;-1.48;65.10;100673.22;4752599;29;20512;-79
2023/01/14 10:50:19;;;;;;;16.40;5.53;;;;;;;-1.76;64.75;100648.75;4759868;30;20059;-79
2023/01/14 10:53:13;;;;;;;16.45;6.18;;;;;;;-2.35;65.51;100519.72;4755278;29;20050;-78
2023/01/14 10:56:13;;;;;;;14.02;7.10;;;;;;;-2.45;65.28;100472.47;4782275;30;20086;-80
2023/01/14 10:58:49;;;;;;;16.80;5.97;;;;;;;-0.93;64.95;100744.25;4767694;30;20484;-77
2023/01/14 11:01:32;;;;;;;14.98;6.38;;;;;;;-1.00;65.11;100716.66;4738934;30;20117;-79
2023/01/14 11:07:43;;;;;;;12.93;5.68;;;;;;;-0.94;65.63;100722.06;4766715;30;20067;-78
2023/01/14 11:10:30;;;;;;;13.73;5.35;;;;;;;-0.99;64.98;100726.03;4781815;29;20090;-78
2023/01/14 11:13:48;;;;;;;13.27;6.15;;;;;;;-1.04;64.76;100718.94;4782108;29;20052;-80
2023/01/14 11:16:28;;;;;;;17.95;6.10;;;;;;;-1.09;65.66;100704.22;4765645;30;20051;-78
2023/01/14 11:19:37;;;;;;;13.45;6.07;;;;;;;-1.10;65.80;100699.06;4766791;29;20531;-79
2023/01/14 11:22:21;;;;;;;12.05;5.75;;;;;;;-1.78;65.93;100585.69;4783314;29;20074;-80
2023/01/14 11:24:54;;;;;;;14.88;5.35;;;;;;;-0.92;65.74;100706.81;4783479;29;20063;-81
2023/01/14 11:27:25;;;;;;;11.80;5.88;;;;;;;-1.71;65.67;100582.66;4768740;29;20062;-79
2023/01/14 11:30:02;;;;;;;13.93;6.15;;;;;;;-2.34;65.30;100475.59;4768771;30;20100;-80
2023/01/14 11:32:36;;;;;;;15.60;6.53;;;;;;;-0.84;65.48;100704.66;4784055;29;20123;-80
2023/01/14 11:35:15;;;;;;;13.43;5.82;;;;;;;-1.03;65.33;100679.81;4766597;29;20054;-79
2023/01/14 11:37:53;;;;;;;11.65;5.38;;;;;;;-1.19;65.50;100658.59;4763941;29;20135;-83
2023/01/14 11:43:14;;;;;;;13.02;5.90;;;;;;;-0.94;65.66;100716.94;4778225;29;20083;-80
2023/01/14 11:45:41;;;;;;;12.75;5.85;;;;;;;-0.94;65.88;100716.94;4753864;30;20058;-80
2023/01/14 11:48:27;;;;;;;14.25;5.50;;;;;;;-1.04;65.41;100704.50;4784013;29;20110;-81
2023/01/14 11:51:20;;;;;;;11.75;6.13;;;;;;;-1.02;65.89;100712.22;4755065;30;20517;-78
2023/01/14 11:53:52;;;;;;;12.65;5.70;;;;;;;-0.98;65.96;100725.25;4769427;30;20056;-82
2023/01/14 11:56:36;;;;;;;15.30;5.45;;;;;;;-0.93;65.41;100725.50;4781330;29;20055;-80
2023/01/14 11:59:19;;;;;;;12.00;5.72;;;;;;;-0.94;66.06;100724.59;4782030;29;20052;-80
2023/01/14 12:01:52;;;;;;;15.63;6.78;;;;;;;-0.97;66.12;100724.44;4772479;29;20056;-80
2023/01/14 12:04:20;;;;;;;;;;;;;;;-0.99;65.83;100715.81;4777053;29;20039;-79
2023/01/14 12:06:51;;;;;;;10.75;5.35;;;;;;;-1.02;65.30;100715.69;4772286;30;20024;-80
2023/01/14 12:09:27;;;;;;;16.92;5.90;;;;;;;-1.17;65.90;100702.06;4779730;30;20104;-80
2023/01/14 12:16:48;;;;;;;10.02;5.32;;;;;;;-2.05;65.99;100565.53;4784974;29;20054;-80
2023/01/14 12:18:40;;;;;;;11.15;5.35;;;;;;;-1.57;65.61;100648.09;4785029;30;20052;-78
2023/01/14 12:21:25;;;;;;;13.60;5.65;;;;;;;-1.90;65.63;100606.31;4772844;30;20050;-83
2023/01/14 12:24:05;;;;;;;12.95;6.57;;;;;;;-1.87;66.05;100598.81;4788798;30;20055;-80
2023/01/14 12:26:42;;;;;;;12.95;5.93;;;;;;;-1.95;65.61;100556.69;4785967;30;20071;-83
2023/01/14 12:29:19;;;;;;;11.43;5.30;;;;;;;-1.72;65.89;100607.28;4780733;30;20052;-82
2023/01/14 12:31:54;;;;;;;14.02;5.68;;;;;;;-1.21;65.57;100694.25;4771530;29;20051;-81
2023/01/14 12:34:43;;;;;;;16.65;5.35;;;;;;;-1.12;65.84;100724.53;4785376;29;20056;-80
2023/01/14 12:37:14;;;;;;;11.70;5.55;;;;;;;-1.04;65.68;100724.94;4786368;29;20055;-80
2023/01/14 12:45:59;;;;;;;19.90;6.05;;;;;;;-1.07;66.04;100743.53;4777226;30;20058;-79
2023/01/14 12:48:33;;;;;;;16.02;5.53;;;;;;;-1.04;65.96;100747.03;4791893;29;20046;-82
2023/01/14 12:51:07;;;;;;;16.85;5.32;;;;;;;-1.58;65.74;100671.84;4785823;29;20112;-82
2023/01/14 12:54:06;;;;;;;11.05;4.72;;;;;;;-0.96;65.45;100766.22;4771444;29;20044;-81
2023/01/14 12:56:48;;;;;;;14.63;5.50;;;;;;;-2.34;65.40;100529.13;4787269;29;20148;-80
2023/01/14 12:59:30;;;;;;;11.85;5.45;;;;;;;-1.00;66.04;100743.84;4769248;30;20085;-81
2023/01/14 13:02:04;;;;;;;13.70;5.80;;;;;;;-1.00;65.70;100742.19;4769931;30;20054;-79
2023/01/14 13:05:05;;;;;;;15.25;5.50;;;;;;;-1.41;65.48;100679.53;4769775;30;20047;-79
2023/01/14 13:07:52;;;;;;;13.55;5.50;;;;;;;-1.75;66.17;100611.38;4768020;29;20047;-81
2023/01/14 13:11:25;;;;;;;11.57;5.25;;;;;;;-1.81;65.21;100619.56;4776986;29;20056;-79
2023/01/14 13:14:04;;;;;;;16.80;6.03;;;;;;;-1.85;65.80;100615.97;4782959;29;20047;-80
2023/01/14 13:16:47;;;;;;;13.55;5.40;;;;;;;-1.02;65.64;100735.22;4768040;29;20052;-80
2023/01/14 13:19:48;;;;;;;12.18;4.80;;;;;;;-2.24;65.08;100545.81;4752709;30;20142;-80
2023/01/14 13:22:53;;;;;;;;;;;;;;;;;;;;;
2023/01/14 13:26:01;;;;;;;15.65;5.85;;;;;;;-0.99;66.06;100749.03;4768802;29;20064;-82
2023/01/14 13:28:39;;;;;;;17.30;6.38;;;;;;;-1.17;66.20;100712.28;4762471;30;20656;-81
2023/01/14 13:35:43;;;;;;;12.20;5.40;;;;;;;-1.67;65.81;100664.56;4786503;29;20059;-81
2023/01/14 13:39:41;;;;;;;;;;;;;;;;;;;;;
2023/01/14 13:51:51;;;;;;;10.32;5.18;;;;;;;-0.96;65.58;100749.19;4766557;30;20051;-81
2023/01/14 13:54:35;;;;;;;13.07;4.78;;;;;;;-1.94;66.15;100578.84;4769491;29;20066;-80
2023/01/14 13:57:37;;;;;;;11.18;4.72;;;;;;;-1.00;66.28;100754.97;4768652;29;20182;-80
2023/01/14 14:01:08;;;;;;;;;;;;;;;;;;;;;
2023/01/14 14:08:13;;;;;;;11.73;4.93;;;;;;;-2.57;66.13;100499.00;4782462;29;20054;-80
2023/01/14 14:10:57;;;;;;;16.50;5.70;;;;;;;-1.62;66.45;100682.69;4768037;30;20138;-81
2023/01/14 14:14:19;;;;;;;;;;;;;;;;;;;;;
2023/01/14 14:21:37;;;;;;;13.75;5.18;;;;;;;-1.06;65.76;100745.28;4781273;29;20584;-82
2023/01/14 14:24:55;;;;;;;11.93;4.97;;;;;;;-1.03;66.34;100759.03;4730027;30;20432;-80
2023/01/14 14:28:37;;;;;;;10.80;5.10;;;;;;;-1.07;66.41;100742.66;4684492;30;20056;-80
2023/01/14 14:32:37;;;;;;;11.60;5.05;;;;;;;-2.42;66.46;100519.38;4722335;30;20185;-81
2023/01/14 14:41:28;;;;;;;14.60;4.85;;;;;;;-1.02;66.66;100750.56;4755623;30;20048;-81
2023/01/14 14:46:05;;;;;;;11.02;4.80;;;;;;;-1.08;66.26;100746.00;4669663;30;20050;-81
2023/01/14 14:50:40;;;;;;;;;;;;;;;;;;;;;
2023/01/14 14:53:35;;;;;;;13.25;5.28;;;;;;;-1.07;66.54;100747.78;4661261;30;20052;-81
2023/01/14 14:57:33;;;;;;;12.00;5.32;;;;;;;-1.95;65.84;100621.38;4751836;29;20046;-81
2023/01/14 15:22:29;;;;;;;11.95;5.07;;;;;;;-1.42;66.93;100726.28;4714077;30;20285;-81
2023/01/14 15:26:10;;;;;;;;;;;;;;;;;;;;;
2023/01/14 15:30:32;;;;;;;12.10;5.38;;;;;;;-1.17;67.38;100738.72;4710733;30;20075;-80
2023/01/14 15:51:18;;;;;;;18.58;5.88;;;;;;;-2.60;67.19;100497.97;4766794;29;20494;-82
2023/01/14 15:55:08;;;;;;;13.45;5.53;;;;;;;-1.15;67.16;100744.81;4735824;30;20059;-83
2023/01/14 15:58:56;;;;;;;;;;;;;;;;;;;;;
2023/01/14 16:02:30;;;;;;;11.82;5.63;;;;;;;-2.28;67.11;100537.09;4744112;30;20541;-84
2023/01/14 16:06:34;;;;;;;;;;;;;;;;;;;;;
2023/01/14 16:09:34;;;;;;;;;;;;;;;;;;;;;
2023/01/14 16:16:12;;;;;;;11.65;4.88;;;;;;;-1.55;67.44;100617.56;4807254;24;20541;-82
2023/01/14 16:55:20;;;;;;;10.73;4.93;;;;;;;-1.68;67.53;100629.63;4694581;30;20101;-81
2023/01/14 16:57:54;;;;;;;17.15;5.68;;;;;;;-2.19;68.04;100516.31;4680469;30;20064;-81
2023/01/14 17:00:41;;;;;;;10.23;4.68;;;;;;;-2.29;67.98;100508.19;4740527;30;20048;-82
2023/01/14 17:04:19;;;;;;;;;;;;;;;;;;;;;
2023/01/14 17:17:41;;;;;;;;;;;;;;;;;;;;;
2023/01/14 17:21:33;;;;;;;12.60;5.13;;;;;;;-1.01;68.48;100711.44;4797735;29;20180;-83
2023/01/14 17:24:00;;;;;;;11.52;5.05;;;;;;;-0.89;68.09;100729.09;4807315;29;20245;-80
2023/01/14 17:26:36;;;;;;;12.13;5.05;;;;;;;-0.92;67.79;100730.69;4805749;29;20077;-84
2023/01/14 17:29:32;;;;;;;11.77;5.13;;;;;;;-0.97;67.47;100721.88;4806171;29;20058;-82
2023/01/14 17:32:09;;;;;;;9.80;5.50;;;;;;;-2.42;67.69;100480.25;4814140;29;20046;-82
2023/01/14 17:34:38;;;;;;;12.68;5.78;;;;;;;-2.48;67.37;100488.44;4803398;29;20142;-84
2023/01/14 17:37:08;;;;;;;11.15;5.55;;;;;;;-1.16;67.95;100709.84;4790899;29;20074;-82
2023/01/14 17:40:00;;;;;;;12.20;6.30;;;;;;;-1.97;68.29;100566.84;4806377;29;20046;-84
2023/01/14 17:43:33;;;;;;;14.63;6.30;;;;;;;-0.92;68.03;100717.03;4791385;29;20054;-83
2023/01/14 17:49:41;;;;;;;14.27;6.45;;;;;;;-2.13;68.34;100555.81;4778742;30;20620;-82